Terminal Aerodrome Forecast
Issued by NWS

Home | Current Version | Previous Version | Text Only | Print | Product List | Glossary On
Versions: 1 2 3 4 5 6 7 8 9 10 11 12
000
FTUS45 KRIW 202327
TAFWRL
TAF
KWRL 202327Z 2100/2124 21011KT P6SM SCT080 BKN150
     FM210100 15008KT P6SM SCT070 BKN140
     FM210600 VRB06KT P6SM SCT060 BKN100
     FM211600 34010KT P6SM BKN060=

USA.gov is the U.S. government's official web portal to all federal, state and local government web resources and services.